地図

経路データ

SID SEASON NUMBER BASIN SUBBASIN NAME ISO_TIME NATURE LAT LON WMO_WIND WMO_PRES WMO_AGENCY TRACK_TYPE DIST2LAND LANDFALL IFLAG USA_AGENCY USA_ATCF_ID USA_LAT USA_LON USA_RECORD USA_STATUS USA_WIND USA_PRES USA_SSHS USA_R34_NE USA_R34_SE USA_R34_SW USA_R34_NW USA_R50_NE USA_R50_SE USA_R50_SW USA_R50_NW USA_R64_NE USA_R64_SE USA_R64_SW USA_R64_NW USA_POCI USA_ROCI USA_RMW USA_EYE TOKYO_LAT TOKYO_LON TOKYO_GRADE TOKYO_WIND TOKYO_PRES TOKYO_R50_DIR TOKYO_R50_LONG TOKYO_R50_SHORT TOKYO_R30_DIR TOKYO_R30_LONG TOKYO_R30_SHORT TOKYO_LAND CMA_LAT CMA_LON CMA_CAT CMA_WIND CMA_PRES HKO_LAT HKO_LON HKO_CAT HKO_WIND HKO_PRES NEWDELHI_LAT NEWDELHI_LON NEWDELHI_GRADE NEWDELHI_WIND NEWDELHI_PRES NEWDELHI_CI NEWDELHI_DP NEWDELHI_POCI REUNION_LAT REUNION_LON REUNION_TYPE REUNION_WIND REUNION_PRES REUNION_TNUM REUNION_CI REUNION_RMW REUNION_R34_NE REUNION_R34_SE REUNION_R34_SW REUNION_R34_NW REUNION_R50_NE REUNION_R50_SE REUNION_R50_SW REUNION_R50_NW REUNION_R64_NE REUNION_R64_SE REUNION_R64_SW REUNION_R64_NW BOM_LAT BOM_LON BOM_TYPE BOM_WIND BOM_PRES BOM_TNUM BOM_CI BOM_RMW BOM_R34_NE BOM_R34_SE BOM_R34_SW BOM_R34_NW BOM_R50_NE BOM_R50_SE BOM_R50_SW BOM_R50_NW BOM_R64_NE BOM_R64_SE BOM_R64_SW BOM_R64_NW BOM_ROCI BOM_POCI BOM_EYE BOM_POS_METHOD BOM_PRES_METHOD NADI_LAT NADI_LON NADI_CAT NADI_WIND NADI_PRES WELLINGTON_LAT WELLINGTON_LON WELLINGTON_WIND WELLINGTON_PRES DS824_LAT DS824_LON DS824_STAGE DS824_WIND DS824_PRES TD9636_LAT TD9636_LON TD9636_STAGE TD9636_WIND TD9636_PRES TD9635_LAT TD9635_LON TD9635_WIND TD9635_PRES TD9635_ROCI NEUMANN_LAT NEUMANN_LON NEUMANN_CLASS NEUMANN_WIND NEUMANN_PRES MLC_LAT MLC_LON MLC_CLASS MLC_WIND MLC_PRES USA_GUST BOM_GUST BOM_GUST_PER REUNION_GUST REUNION_GUST_PER USA_SEAHGT USA_SEARAD_NE USA_SEARAD_SE USA_SEARAD_SW USA_SEARAD_NW STORM_SPEED STORM_DIR
1898032S09063 1898 2 SI MM NOT_NAMED 1898-02-01 06:00:00 NR -9.40000 63.2000 reunion main 1335 1325 _____O________ -1 -9.40000 63.2000 99 9.90000 3 204
1898032S09063 1898 2 SI MM NOT_NAMED 1898-02-01 09:00:00 NR -9.54018 63.1499 main 1320 1300 _____P________ -1 -9.54018 63.1499 99 3 198
1898032S09063 1898 2 SI MM NOT_NAMED 1898-02-01 12:00:00 NR -9.68605 63.0998 main 1300 1290 _____P________ -1 -9.68605 63.0998 99 3 198
1898032S09063 1898 2 SI MM NOT_NAMED 1898-02-01 15:00:00 NR -9.84329 63.0498 main 1285 1265 _____P________ -1 -9.84329 63.0498 99 3 196
1898032S09063 1898 2 SI MM NOT_NAMED 1898-02-01 18:00:00 NR -10.0176 62.9997 main 1265 1245 _____P________ -1 -10.0176 62.9997 99 4 194
1898032S09063 1898 2 SI MM NOT_NAMED 1898-02-01 21:00:00 NR -10.2147 62.9497 main 1240 1220 _____P________ -1 -10.2147 62.9497 99 4 193
1898032S09063 1898 2 SI MM NOT_NAMED 1898-02-02 00:00:00 NR -10.4404 62.8997 main 1220 1190 _____P________ -1 -10.4404 62.8997 99 5 192
1898032S09063 1898 2 SI MM NOT_NAMED 1898-02-02 03:00:00 NR -10.7002 62.8498 main 1185 1155 _____P________ -1 -10.7002 62.8498 99 6 190
1898032S09063 1898 2 SI MM NOT_NAMED 1898-02-02 06:00:00 NR -11.0000 62.8000 reunion main 1155 1125 _____O________ -1 -11.0000 62.8000 99 9.90000 7 189
1898032S09063 1898 2 SI MM NOT_NAMED 1898-02-02 09:00:00 NR -11.3431 62.7504 main 1125 1081 _____P________ -1 -11.3431 62.7504 99 7 188
1898032S09063 1898 2 SI MM NOT_NAMED 1898-02-02 12:00:00 NR -11.7232 62.7019 main 1081 1042 _____P________ -1 -11.7232 62.7019 99 8 186
1898032S09063 1898 2 SI MM NOT_NAMED 1898-02-02 15:00:00 NR -12.1318 62.6558 main 1042 998 _____P________ -1 -12.1318 62.6558 99 8 186
1898032S09063 1898 2 SI MM NOT_NAMED 1898-02-02 18:00:00 NR -12.5602 62.6131 main 988 950 _____P________ -1 -12.5602 62.6131 99 9 185
1898032S09063 1898 2 SI MM NOT_NAMED 1898-02-02 21:00:00 NR -12.9999 62.5750 main 950 907 _____P________ -1 -12.9999 62.5750 99 9 185
1898032S09063 1898 2 SI MM NOT_NAMED 1898-02-03 00:00:00 NR -13.4421 62.5426 main 907 861 _____P________ -1 -13.4421 62.5426 99 9 184
1898032S09063 1898 2 SI MM NOT_NAMED 1898-02-03 03:00:00 NR -13.8783 62.5172 main 861 825 _____P________ -1 -13.8783 62.5172 99 9 182
1898032S09063 1898 2 SI MM NOT_NAMED 1898-02-03 06:00:00 NR -14.3000 62.5000 reunion main 825 790 _____O________ -1 -14.3000 62.5000 99 9.90000 8 182
1898032S09063 1898 2 SI MM NOT_NAMED 1898-02-03 09:00:00 NR -14.6770 62.4881 main 790 764 _____P________ -1 -14.6770 62.4881 99 7 182
1898032S09063 1898 2 SI MM NOT_NAMED 1898-02-03 12:00:00 NR -15.0439 62.4840 main 764 731 _____P________ -1 -15.0439 62.4840 99 7 182
1898032S09063 1898 2 SI MM NOT_NAMED 1898-02-03 15:00:00 NR -15.4019 62.4872 main 731 707 _____P________ -1 -15.4019 62.4872 99 7 178
1898032S09063 1898 2 SI MM NOT_NAMED 1898-02-03 18:00:00 NR -15.7523 62.4975 main 699 676 _____P________ -1 -15.7523 62.4975 99 7 179
1898032S09063 1898 2 SI MM NOT_NAMED 1898-02-03 21:00:00 NR -16.0961 62.5143 main 676 654 _____P________ -1 -16.0961 62.5143 99 7 177
1898032S09063 1898 2 SI MM NOT_NAMED 1898-02-04 00:00:00 NR -16.4346 62.5373 main 654 635 _____P________ -1 -16.4346 62.5373 99 7 175
1898032S09063 1898 2 SI MM NOT_NAMED 1898-02-04 03:00:00 NR -16.7688 62.5660 main 635 615 _____P________ -1 -16.7688 62.5660 99 7 175
1898032S09063 1898 2 SI MM NOT_NAMED 1898-02-04 06:00:00 NR -17.1000 62.6000 reunion main 615 597 _____O________ -1 -17.1000 62.6000 99 9.90000 7 175
1898032S09063 1898 2 SI MM NOT_NAMED 1898-02-04 09:00:00 NR -17.4399 62.6211 main 597 575 _____P________ -1 -17.4399 62.6211 99 7 177
1898032S09063 1898 2 SI MM NOT_NAMED 1898-02-04 12:00:00 NR -17.7763 62.6466 main 575 570 _____P________ -1 -17.7763 62.6466 99 7 175
1898032S09063 1898 2 SI MM NOT_NAMED 1898-02-04 15:00:00 NR -18.1088 62.6785 main 570 556 _____P________ -1 -18.1088 62.6785 99 7 174
1898032S09063 1898 2 SI MM NOT_NAMED 1898-02-04 18:00:00 NR -18.4371 62.7186 main 556 547 _____P________ -1 -18.4371 62.7186 99 7 173
1898032S09063 1898 2 SI MM NOT_NAMED 1898-02-04 21:00:00 NR -18.7608 62.7689 main 550 540 _____P________ -1 -18.7608 62.7689 99 7 170
1898032S09063 1898 2 SI MM NOT_NAMED 1898-02-05 00:00:00 NR -19.0794 62.8313 main 540 540 _____P________ -1 -19.0794 62.8313 99 6 168
1898032S09063 1898 2 SI MM NOT_NAMED 1898-02-05 03:00:00 NR -19.3926 62.9077 main 542 540 _____P________ -1 -19.3926 62.9077 99 6 166
1898032S09063 1898 2 SI MM NOT_NAMED 1898-02-05 06:00:00 NR -19.7000 63.0000 reunion main 547 545 _____O________ -1 -19.7000 63.0000 99 9.90000 6 163
1898032S09063 1898 2 SI MM NOT_NAMED 1898-02-05 09:00:00 NR -20.0033 63.1052 main 554 553 _____P________ -1 -20.0033 63.1052 99 6 161
1898032S09063 1898 2 SI MM NOT_NAMED 1898-02-05 12:00:00 NR -20.3006 63.2264 main 563 563 _____P________ -1 -20.3006 63.2264 99 6 158
1898032S09063 1898 2 SI MM NOT_NAMED 1898-02-05 15:00:00 NR -20.5925 63.3620 main 584 584 _____P________ -1 -20.5925 63.3620 99 6 155
1898032S09063 1898 2 SI MM NOT_NAMED 1898-02-05 18:00:00 NR -20.8799 63.5104 main 596 596 _____P________ -1 -20.8799 63.5104 99 6 153
1898032S09063 1898 2 SI MM NOT_NAMED 1898-02-05 21:00:00 NR -21.1635 63.6700 main 621 621 _____P________ -1 -21.1635 63.6700 99 6 152
1898032S09063 1898 2 SI MM NOT_NAMED 1898-02-06 00:00:00 NR -21.4442 63.8393 main 635 635 _____P________ -1 -21.4442 63.8393 99 6 150
1898032S09063 1898 2 SI MM NOT_NAMED 1898-02-06 03:00:00 NR -21.7228 64.0165 main 662 662 _____P________ -1 -21.7228 64.0165 99 7 149
1898032S09063 1898 2 SI MM NOT_NAMED 1898-02-06 06:00:00 NR -22.0000 64.2000 reunion main 690 690 _____O________ -1 -22.0000 64.2000 99 9.90000 7 149
1898032S09063 1898 2 SI MM NOT_NAMED 1898-02-06 09:00:00 NR -22.2910 64.3777 main 719 719 _____P________ -1 -22.2910 64.3777 99 7 150
1898032S09063 1898 2 SI MM NOT_NAMED 1898-02-06 12:00:00 NR -22.5814 64.5632 main 748 748 _____P________ -1 -22.5814 64.5632 99 7 149
1898032S09063 1898 2 SI MM NOT_NAMED 1898-02-06 15:00:00 NR -22.8691 64.7560 main 779 779 _____P________ -1 -22.8691 64.7560 99 7 148
1898032S09063 1898 2 SI MM NOT_NAMED 1898-02-06 18:00:00 NR -23.1522 64.9551 main 810 810 _____P________ -1 -23.1522 64.9551 99 7 146
1898032S09063 1898 2 SI MM NOT_NAMED 1898-02-06 21:00:00 NR -23.4288 65.1599 main 838 838 _____P________ -1 -23.4288 65.1599 99 7 145
1898032S09063 1898 2 SI MM NOT_NAMED 1898-02-07 00:00:00 NR -23.6969 65.3696 main 869 869 _____P________ -1 -23.6969 65.3696 99 7 144
1898032S09063 1898 2 SI MM NOT_NAMED 1898-02-07 03:00:00 NR -23.9546 65.5832 main 901 901 _____P________ -1 -23.9546 65.5832 99 6 142
1898032S09063 1898 2 SI MM NOT_NAMED 1898-02-07 06:00:00 NR -24.2000 65.8000 reunion main 929 929 _____O________ -1 -24.2000 65.8000 99 9.90000 6 141
1898032S09063 1898 2 SI MM NOT_NAMED 1898-02-07 09:00:00 NR -24.4374 66.0199 main 957 957 _____P________ -1 -24.4374 66.0199 99 6 139
1898032S09063 1898 2 SI MM NOT_NAMED 1898-02-07 12:00:00 NR -24.6633 66.2443 main 990 990 _____P________ -1 -24.6633 66.2443 99 6 137
1898032S09063 1898 2 SI MM NOT_NAMED 1898-02-07 15:00:00 NR -24.8782 66.4717 main 1027 1027 _____P________ -1 -24.8782 66.4717 99 6 135
1898032S09063 1898 2 SI MM NOT_NAMED 1898-02-07 18:00:00 NR -25.0824 66.7006 main 1055 1055 _____P________ -1 -25.0824 66.7006 99 6 134
1898032S09063 1898 2 SI MM NOT_NAMED 1898-02-07 21:00:00 NR -25.2763 66.9294 main 1083 1083 _____P________ -1 -25.2763 66.9294 99 6 132
1898032S09063 1898 2 SI MM NOT_NAMED 1898-02-08 00:00:00 NR -25.4602 67.1566 main 1120 1120 _____P________ -1 -25.4602 67.1566 99 5 131
1898032S09063 1898 2 SI MM NOT_NAMED 1898-02-08 03:00:00 NR -25.6347 67.3807 main 1143 1143 _____P________ -1 -25.6347 67.3807 99 5 130
1898032S09063 1898 2 SI MM NOT_NAMED 1898-02-08 06:00:00 NR -25.8000 67.6000 reunion main 1171 1171 _____O________ -1 -25.8000 67.6000 99 9.90000 5 130
1898032S09063 1898 2 SI MM NOT_NAMED 1898-02-08 09:00:00 NR -25.9567 67.8134 main 1199 1199 _____P________ -1 -25.9567 67.8134 99 5 129
1898032S09063 1898 2 SI MM NOT_NAMED 1898-02-08 12:00:00 NR -26.1059 68.0214 main 1222 1222 _____P________ -1 -26.1059 68.0214 99 5 128
1898032S09063 1898 2 SI MM NOT_NAMED 1898-02-08 15:00:00 NR -26.2485 68.2246 main 1245 1245 _____P________ -1 -26.2485 68.2246 99 5 128
1898032S09063 1898 2 SI MM NOT_NAMED 1898-02-08 18:00:00 NR -26.3855 68.4240 main 1273 1273 _____P________ -1 -26.3855 68.4240 99 4 127
1898032S09063 1898 2 SI MM NOT_NAMED 1898-02-08 21:00:00 NR -26.5182 68.6204 main 1296 1296 _____P________ -1 -26.5182 68.6204 99 4 127
1898032S09063 1898 2 SI MM NOT_NAMED 1898-02-09 00:00:00 NR -26.6475 68.8147 main 1319 1319 _____P________ -1 -26.6475 68.8147 99 4 127
1898032S09063 1898 2 SI MM NOT_NAMED 1898-02-09 03:00:00 NR -26.7744 69.0076 main 1347 1347 _____P________ -1 -26.7744 69.0076 99 4 126
1898032S09063 1898 2 SI MM NOT_NAMED 1898-02-09 06:00:00 NR -26.9000 69.2000 reunion main 1370 _____O________ -1 -26.9000 69.2000 99 9.90000 4 126

IBTrACS Databaseについて

本データベースは、米国NOAAが公開する1842年以降の世界の熱帯低気圧のベストトラックデータアーカイブInternational Best Track Archive for Climate Stewardship (IBTrACS)を、ウェブで閲覧しやすい形式に変換したものです。

最終更新日:2021-11-26